Terminal Aerodrome Forecast
Issued by NWS

Home | Current Version | Previous Version | Text Only | Print | Product List | Glossary On
Versions: 1 2 3 4 5 6 7 8 9 10 11 12 13 14 15 16 17
167
FTAK31 PAJN 300527
TAFAYA
TAF
PAYA 300527Z 3006/3106 07010G15KT P6SM VCSH SCT070 BKN100
      WS020/06040KT
     FM300900 VRB05KT P6SM OVC100 WS020/06040KT
     FM301800 05012G21KT P6SM OVC090 WS020/06040KT
      AMD LTD TO CLD VIS AND WIND 3006/3009=

USA.gov is the U.S. government's official web portal to all federal, state and local government web resources and services.